Terminal Aerodrome Forecast
Issued by NWS Greer, SC

Current Version | Previous Version | Text Only | Print | Product List | Glossary On
Versions: 1 2 3 4 5 6 7 8 9 10 11 12 13 14 15 16 17 18 19 20 21 22 23 24 25 26 27 28
000
FTUS42 KGSP 281737
TAFAVL
TAF
KAVL 281737Z 2818/2918 19010KT P6SM VCSH SCT050
     FM282300 30007KT P6SM FEW250
     FM290200 32003KT P6SM FEW250
     FM290700 33007KT P6SM FEW250=

USA.gov is the U.S. government's official web portal to all federal, state and local government web resources and services.